To NAV CANADA Home Page Login to a new session Search on AWWS site Feedback and Comments Disclaimer Vers la page française équivalente Tips FAQ What's new on the site To the Forecasts and Observations / NOTAM section To "File a Flight Plan" website Publications and other links Update of the User's profile FIC Telephone Numbers My Weather Data Folder Route Weather Data Regional Weather Data Local Weather Data To the Forecasts and Observations / NOTAM section
Request Generated 05/04/2016 at 13:40:21 UTC . Weather information available at that time is displayed.

METAR/TAF

CALGARY/CALGARY INTL/AB    

METAR CYYC 041300Z 18004KT 160V250 40SM FEW250 10/M01 A2994 RMK CI2
CONTRAILS SLP135 DENSITY ALT 3800FT=
METAR CYYC 041200Z 24005KT 40SM FEW250 10/M02 A2994 RMK CI2 SLP132
DENSITY ALT 3800FT=
METAR CYYC 041100Z 21003KT 15SM FEW250 11/M01 A2993 RMK CI1 CI TR
SLP130 DENSITY ALT 3900FT=

TAF CYYC 041140Z 0412/0512 VRB03KT P6SM FEW250
BECMG 0416/0418 20008KT
FM042100 22012KT P6SM SCT120 BKN220
BECMG 0506/0508 36010KT
FM051000 33012G22KT P6SM SCT100 BKN160
RMK NXT FCST BY 041500Z=
Your time UTC time
Weather data provided by Environment Canada and NAV CANADA